sensor_id;sensor_type;location;lat;lon;timestamp;pressure;altitude;pressure_sealevel;temperature;humidity
34500;BME280;20745;50.882;6.962;2023-03-03T00:00:55;101568.66;;;4.21;100.00
34500;BME280;20745;50.882;6.962;2023-03-03T00:03:23;101567.59;;;4.24;100.00
34500;BME280;20745;50.882;6.962;2023-03-03T00:05:51;101571.22;;;4.12;100.00
34500;BME280;20745;50.882;6.962;2023-03-03T00:08:19;101571.81;;;4.04;100.00
34500;BME280;20745;50.882;6.962;2023-03-03T00:10:46;101571.19;;;3.90;100.00
34500;BME280;20745;50.882;6.962;2023-03-03T00:13:20;101574.88;;;4.00;100.00
34500;BME280;20745;50.882;6.962;2023-03-03T00:15:48;101578.00;;;4.05;100.00
34500;BME280;20745;50.882;6.962;2023-03-03T00:18:29;101579.22;;;4.12;100.00
34500;BME280;20745;50.882;6.962;2023-03-03T00:20:58;101571.72;;;4.17;100.00
34500;BME280;20745;50.882;6.962;2023-03-03T00:23:39;101578.38;;;4.11;100.00
34500;BME280;20745;50.882;6.962;2023-03-03T00:26:20;101582.16;;;4.09;100.00
34500;BME280;20745;50.882;6.962;2023-03-03T00:28:49;101579.88;;;4.15;100.00
34500;BME280;20745;50.882;6.962;2023-03-03T00:31:21;101581.66;;;4.04;100.00
34500;BME280;20745;50.882;6.962;2023-03-03T00:33:53;101574.63;;;4.14;100.00
34500;BME280;20745;50.882;6.962;2023-03-03T00:36:25;101583.47;;;3.92;100.00
34500;BME280;20745;50.882;6.962;2023-03-03T00:38:58;101584.16;;;3.83;100.00
34500;BME280;20745;50.882;6.962;2023-03-03T00:41:26;101581.13;;;3.88;100.00
34500;BME280;20745;50.882;6.962;2023-03-03T00:43:53;101583.28;;;3.83;100.00
34500;BME280;20745;50.882;6.962;2023-03-03T00:46:22;101586.94;;;3.82;100.00
34500;BME280;20745;50.882;6.962;2023-03-03T00:48:50;101589.97;;;3.77;100.00
34500;BME280;20745;50.882;6.962;2023-03-03T00:53:46;101603.31;;;3.66;100.00
34500;BME280;20745;50.882;6.962;2023-03-03T00:56:12;101594.41;;;3.55;100.00
34500;BME280;20745;50.882;6.962;2023-03-03T00:58:39;101590.97;;;3.53;100.00
34500;BME280;20745;50.882;6.962;2023-03-03T01:01:06;101594.63;;;3.52;100.00
34500;BME280;20745;50.882;6.962;2023-03-03T01:03:33;101595.06;;;3.46;100.00
34500;BME280;20745;50.882;6.962;2023-03-03T01:05:59;101599.84;;;3.30;100.00
34500;BME280;20745;50.882;6.962;2023-03-03T01:08:26;101599.13;;;3.28;100.00
34500;BME280;20745;50.882;6.962;2023-03-03T01:10:55;101599.13;;;3.28;100.00
34500;BME280;20745;50.882;6.962;2023-03-03T01:13:25;101591.28;;;3.14;100.00
34500;BME280;20745;50.882;6.962;2023-03-03T01:15:53;101577.38;;;2.98;100.00
34500;BME280;20745;50.882;6.962;2023-03-03T01:18:26;101581.50;;;3.02;100.00
34500;BME280;20745;50.882;6.962;2023-03-03T01:20:52;101599.31;;;3.01;100.00
34500;BME280;20745;50.882;6.962;2023-03-03T01:23:19;101602.34;;;2.97;100.00
34500;BME280;20745;50.882;6.962;2023-03-03T01:25:45;101606.41;;;2.90;100.00
34500;BME280;20745;50.882;6.962;2023-03-03T01:28:12;101599.19;;;2.79;100.00
34500;BME280;20745;50.882;6.962;2023-03-03T01:30:39;101602.59;;;2.81;100.00
34500;BME280;20745;50.882;6.962;2023-03-03T01:33:05;101609.22;;;2.76;100.00
34500;BME280;20745;50.882;6.962;2023-03-03T01:35:31;101606.88;;;2.84;100.00
34500;BME280;20745;50.882;6.962;2023-03-03T01:37:58;101604.22;;;3.07;100.00
34500;BME280;20745;50.882;6.962;2023-03-03T01:40:27;101609.06;;;3.26;100.00
34500;BME280;20745;50.882;6.962;2023-03-03T01:42:54;101606.59;;;3.23;100.00
34500;BME280;20745;50.882;6.962;2023-03-03T01:45:24;101607.59;;;3.22;100.00
34500;BME280;20745;50.882;6.962;2023-03-03T01:50:43;101608.13;;;3.14;100.00
34500;BME280;20745;50.882;6.962;2023-03-03T01:53:16;101615.75;;;3.08;100.00
34500;BME280;20745;50.882;6.962;2023-03-03T01:55:44;101608.19;;;3.02;100.00
34500;BME280;20745;50.882;6.962;2023-03-03T01:58:43;101602.34;;;2.97;100.00
34500;BME280;20745;50.882;6.962;2023-03-03T02:01:13;101599.81;;;2.95;100.00
34500;BME280;20745;50.882;6.962;2023-03-03T02:03:42;101592.72;;;2.94;100.00
34500;BME280;20745;50.882;6.962;2023-03-03T02:06:13;101594.84;;;3.02;100.00
34500;BME280;20745;50.882;6.962;2023-03-03T02:09:05;101601.75;;;2.81;100.00
34500;BME280;20745;50.882;6.962;2023-03-03T02:11:35;101608.78;;;2.82;100.00
34500;BME280;20745;50.882;6.962;2023-03-03T02:14:03;101609.75;;;2.81;100.00
34500;BME280;20745;50.882;6.962;2023-03-03T02:16:29;101612.09;;;2.73;100.00
34500;BME280;20745;50.882;6.962;2023-03-03T02:18:56;101609.91;;;2.67;100.00
34500;BME280;20745;50.882;6.962;2023-03-03T02:21:24;101612.00;;;2.74;100.00
34500;BME280;20745;50.882;6.962;2023-03-03T02:24:08;101619.50;;;2.69;100.00
34500;BME280;20745;50.882;6.962;2023-03-03T02:26:39;101606.28;;;2.68;100.00
34500;BME280;20745;50.882;6.962;2023-03-03T02:29:08;101614.16;;;2.69;100.00
34500;BME280;20745;50.882;6.962;2023-03-03T02:31:35;101616.72;;;2.58;100.00
34500;BME280;20745;50.882;6.962;2023-03-03T02:34:03;101618.13;;;2.64;100.00
34500;BME280;20745;50.882;6.962;2023-03-03T02:36:31;101625.38;;;2.62;100.00
34500;BME280;20745;50.882;6.962;2023-03-03T02:39:03;101612.44;;;2.68;100.00
34500;BME280;20745;50.882;6.962;2023-03-03T02:44:08;101613.72;;;2.63;100.00
34500;BME280;20745;50.882;6.962;2023-03-03T02:46:39;101610.13;;;2.64;100.00
34500;BME280;20745;50.882;6.962;2023-03-03T02:49:07;101628.00;;;2.74;100.00
34500;BME280;20745;50.882;6.962;2023-03-03T02:51:34;101609.41;;;2.49;100.00
34500;BME280;20745;50.882;6.962;2023-03-03T02:54:01;101627.59;;;2.68;100.00
34500;BME280;20745;50.882;6.962;2023-03-03T02:56:28;101631.88;;;2.58;100.00
34500;BME280;20745;50.882;6.962;2023-03-03T02:58:54;101629.31;;;2.56;100.00
34500;BME280;20745;50.882;6.962;2023-03-03T03:01:21;101619.41;;;2.45;100.00
34500;BME280;20745;50.882;6.962;2023-03-03T03:03:48;101642.75;;;2.54;100.00
34500;BME280;20745;50.882;6.962;2023-03-03T03:06:15;101642.13;;;2.64;100.00
34500;BME280;20745;50.882;6.962;2023-03-03T03:08:42;101641.22;;;2.76;100.00
34500;BME280;20745;50.882;6.962;2023-03-03T03:11:08;101646.69;;;2.74;100.00
34500;BME280;20745;50.882;6.962;2023-03-03T03:13:35;101642.09;;;2.76;100.00
34500;BME280;20745;50.882;6.962;2023-03-03T03:16:01;101643.19;;;2.74;100.00
34500;BME280;20745;50.882;6.962;2023-03-03T03:18:28;101640.72;;;2.58;100.00
34500;BME280;20745;50.882;6.962;2023-03-03T03:20:54;101635.72;;;2.66;100.00
34500;BME280;20745;50.882;6.962;2023-03-03T03:23:21;101638.28;;;2.68;100.00
34500;BME280;20745;50.882;6.962;2023-03-03T03:25:47;101643.19;;;2.74;100.00
34500;BME280;20745;50.882;6.962;2023-03-03T03:28:15;101645.38;;;2.80;100.00
34500;BME280;20745;50.882;6.962;2023-03-03T03:30:43;101629.84;;;2.61;100.00
34500;BME280;20745;50.882;6.962;2023-03-03T03:33:11;101642.56;;;2.58;100.00
34500;BME280;20745;50.882;6.962;2023-03-03T03:35:37;101645.31;;;2.69;100.00
34500;BME280;20745;50.882;6.962;2023-03-03T03:38:05;101644.47;;;2.55;100.00
34500;BME280;20745;50.882;6.962;2023-03-03T03:40:32;101648.13;;;2.42;100.00
34500;BME280;20745;50.882;6.962;2023-03-03T03:42:58;101645.78;;;2.25;100.00
34500;BME280;20745;50.882;6.962;2023-03-03T03:45:25;101652.25;;;2.21;100.00
34500;BME280;20745;50.882;6.962;2023-03-03T03:47:51;101656.84;;;2.31;100.00
34500;BME280;20745;50.882;6.962;2023-03-03T03:50:18;101662.59;;;2.25;100.00
34500;BME280;20745;50.882;6.962;2023-03-03T03:52:44;101667.59;;;2.17;100.00
34500;BME280;20745;50.882;6.962;2023-03-03T03:55:11;101678.69;;;2.24;100.00
34500;BME280;20745;50.882;6.962;2023-03-03T03:57:37;101679.66;;;2.35;100.00
34500;BME280;20745;50.882;6.962;2023-03-03T04:00:05;101681.59;;;2.33;100.00
34500;BME280;20745;50.882;6.962;2023-03-03T04:02:31;101627.44;;;2.20;100.00
34500;BME280;20745;50.882;6.962;2023-03-03T04:05:01;101653.88;;;2.36;100.00
34500;BME280;20745;50.882;6.962;2023-03-03T04:07:28;101668.03;;;2.36;100.00
34500;BME280;20745;50.882;6.962;2023-03-03T04:09:55;101674.53;;;2.32;100.00
34500;BME280;20745;50.882;6.962;2023-03-03T04:12:22;101672.41;;;2.25;100.00
34500;BME280;20745;50.882;6.962;2023-03-03T04:14:48;101666.22;;;2.24;100.00
34500;BME280;20745;50.882;6.962;2023-03-03T04:17:16;101665.56;;;2.21;100.00
34500;BME280;20745;50.882;6.962;2023-03-03T04:19:43;101666.03;;;2.27;100.00
34500;BME280;20745;50.882;6.962;2023-03-03T04:22:10;101661.75;;;2.37;100.00
34500;BME280;20745;50.882;6.962;2023-03-03T04:24:38;101664.53;;;2.36;100.00
34500;BME280;20745;50.882;6.962;2023-03-03T04:27:06;101675.59;;;2.42;100.00
34500;BME280;20745;50.882;6.962;2023-03-03T04:29:34;101673.25;;;2.38;100.00
34500;BME280;20745;50.882;6.962;2023-03-03T04:32:00;101656.44;;;2.25;100.00
34500;BME280;20745;50.882;6.962;2023-03-03T04:34:27;101671.25;;;2.41;100.00
34500;BME280;20745;50.882;6.962;2023-03-03T04:36:53;101666.97;;;2.39;100.00
34500;BME280;20745;50.882;6.962;2023-03-03T04:39:20;101654.69;;;2.36;100.00
34500;BME280;20745;50.882;6.962;2023-03-03T04:41:47;101670.06;;;2.45;100.00
34500;BME280;20745;50.882;6.962;2023-03-03T04:44:14;101677.63;;;2.51;100.00
34500;BME280;20745;50.882;6.962;2023-03-03T04:46:40;101683.94;;;2.50;100.00
34500;BME280;20745;50.882;6.962;2023-03-03T04:49:07;101678.41;;;2.53;100.00
34500;BME280;20745;50.882;6.962;2023-03-03T04:51:37;101679.34;;;2.65;100.00
34500;BME280;20745;50.882;6.962;2023-03-03T04:54:04;101672.84;;;2.57;100.00
34500;BME280;20745;50.882;6.962;2023-03-03T04:56:30;101687.66;;;2.61;100.00
34500;BME280;20745;50.882;6.962;2023-03-03T04:58:57;101685.19;;;2.70;100.00
34500;BME280;20745;50.882;6.962;2023-03-03T05:01:23;101688.84;;;2.69;100.00
34500;BME280;20745;50.882;6.962;2023-03-03T05:03:50;101689.47;;;2.73;100.00
34500;BME280;20745;50.882;6.962;2023-03-03T05:06:16;101696.41;;;2.75;100.00
34500;BME280;20745;50.882;6.962;2023-03-03T05:08:45;101707.50;;;2.82;100.00
34500;BME280;20745;50.882;6.962;2023-03-03T05:11:11;101692.78;;;2.64;100.00
34500;BME280;20745;50.882;6.962;2023-03-03T05:13:39;101706.72;;;2.80;100.00
34500;BME280;20745;50.882;6.962;2023-03-03T05:16:06;101695.56;;;2.75;100.00
34500;BME280;20745;50.882;6.962;2023-03-03T05:18:33;101687.09;;;2.68;100.00
34500;BME280;20745;50.882;6.962;2023-03-03T05:21:00;101695.88;;;2.70;100.00
34500;BME280;20745;50.882;6.962;2023-03-03T05:23:27;101699.69;;;2.79;100.00
34500;BME280;20745;50.882;6.962;2023-03-03T05:25:54;101720.28;;;2.89;100.00
34500;BME280;20745;50.882;6.962;2023-03-03T05:28:21;101714.00;;;2.90;100.00
34500;BME280;20745;50.882;6.962;2023-03-03T05:30:47;101715.69;;;2.91;100.00
34500;BME280;20745;50.882;6.962;2023-03-03T05:33:15;101714.63;;;2.94;100.00
34500;BME280;20745;50.882;6.962;2023-03-03T05:35:42;101702.56;;;2.88;100.00
34500;BME280;20745;50.882;6.962;2023-03-03T05:38:09;101718.25;;;2.93;100.00
34500;BME280;20745;50.882;6.962;2023-03-03T05:40:36;101719.09;;;3.06;100.00
34500;BME280;20745;50.882;6.962;2023-03-03T05:43:03;101718.25;;;2.93;100.00
34500;BME280;20745;50.882;6.962;2023-03-03T05:45:30;101724.97;;;2.86;100.00
34500;BME280;20745;50.882;6.962;2023-03-03T05:47:56;101731.19;;;2.86;100.00
34500;BME280;20745;50.882;6.962;2023-03-03T05:50:23;101722.41;;;2.84;100.00
34500;BME280;20745;50.882;6.962;2023-03-03T05:52:50;101733.66;;;2.77;100.00
34500;BME280;20745;50.882;6.962;2023-03-03T05:55:18;101722.31;;;2.86;100.00
34500;BME280;20745;50.882;6.962;2023-03-03T05:57:44;101733.84;;;2.86;100.00
34500;BME280;20745;50.882;6.962;2023-03-03T06:00:12;101725.31;;;2.69;100.00
34500;BME280;20745;50.882;6.962;2023-03-03T06:02:40;101732.13;;;2.73;100.00
34500;BME280;20745;50.882;6.962;2023-03-03T06:05:08;101731.72;;;2.79;100.00
34500;BME280;20745;50.882;6.962;2023-03-03T06:07:34;101724.44;;;2.93;100.00
34500;BME280;20745;50.882;6.962;2023-03-03T06:10:02;101724.41;;;3.06;100.00
34500;BME280;20745;50.882;6.962;2023-03-03T06:12:29;101729.75;;;3.06;100.00
34500;BME280;20745;50.882;6.962;2023-03-03T06:14:55;101722.28;;;2.98;100.00
34500;BME280;20745;50.882;6.962;2023-03-03T06:17:22;101711.00;;;2.95;100.00
34500;BME280;20745;50.882;6.962;2023-03-03T06:19:48;101736.19;;;2.91;100.00
34500;BME280;20745;50.882;6.962;2023-03-03T06:22:15;101741.31;;;2.81;100.00
34500;BME280;20745;50.882;6.962;2023-03-03T06:24:42;101743.25;;;2.79;100.00
34500;BME280;20745;50.882;6.962;2023-03-03T06:27:09;101746.09;;;2.89;100.00
34500;BME280;20745;50.882;6.962;2023-03-03T06:29:35;101754.13;;;2.89;100.00
34500;BME280;20745;50.882;6.962;2023-03-03T06:32:02;101728.84;;;2.82;100.00
34500;BME280;20745;50.882;6.962;2023-03-03T06:34:29;101729.03;;;2.79;100.00
34500;BME280;20745;50.882;6.962;2023-03-03T06:36:55;101742.81;;;2.98;100.00
34500;BME280;20745;50.882;6.962;2023-03-03T06:39:22;101744.06;;;3.05;100.00
34500;BME280;20745;50.882;6.962;2023-03-03T06:41:48;101746.81;;;3.16;100.00
34500;BME280;20745;50.882;6.962;2023-03-03T06:44:15;101750.66;;;3.24;100.00
34500;BME280;20745;50.882;6.962;2023-03-03T06:46:42;101753.75;;;3.18;100.00
34500;BME280;20745;50.882;6.962;2023-03-03T06:49:08;101765.22;;;3.08;100.00
34500;BME280;20745;50.882;6.962;2023-03-03T06:51:37;101765.75;;;3.00;100.00
34500;BME280;20745;50.882;6.962;2023-03-03T06:54:16;101776.94;;;3.18;100.00
34500;BME280;20745;50.882;6.962;2023-03-03T06:56:44;101776.72;;;3.21;100.00
34500;BME280;20745;50.882;6.962;2023-03-03T06:59:16;101787.09;;;3.25;100.00
34500;BME280;20745;50.882;6.962;2023-03-03T07:01:45;101789.97;;;3.10;100.00
34500;BME280;20745;50.882;6.962;2023-03-03T07:06:45;101804.94;;;3.12;100.00
34500;BME280;20745;50.882;6.962;2023-03-03T07:09:21;101798.50;;;3.15;100.00
34500;BME280;20745;50.882;6.962;2023-03-03T07:12:08;101805.16;;;2.97;100.00
34500;BME280;20745;50.882;6.962;2023-03-03T07:14:47;101803.53;;;2.94;100.00
34500;BME280;20745;50.882;6.962;2023-03-03T07:17:18;101800.13;;;3.05;100.00
34500;BME280;20745;50.882;6.962;2023-03-03T07:19:46;101799.69;;;2.86;100.00
34500;BME280;20745;50.882;6.962;2023-03-03T07:22:15;101800.44;;;3.00;100.00
34500;BME280;20745;50.882;6.962;2023-03-03T07:24:47;101820.72;;;2.90;100.00
34500;BME280;20745;50.882;6.962;2023-03-03T07:29:52;101813.88;;;2.99;100.00
34500;BME280;20745;50.882;6.962;2023-03-03T07:32:37;101811.00;;;3.02;100.00
34500;BME280;20745;50.882;6.962;2023-03-03T07:35:39;101819.66;;;3.05;100.00
34500;BME280;20745;50.882;6.962;2023-03-03T07:38:28;101818.91;;;3.16;100.00
34500;BME280;20745;50.882;6.962;2023-03-03T07:40:58;101826.16;;;3.01;100.00
34500;BME280;20745;50.882;6.962;2023-03-03T07:48:40;101827.88;;;3.15;100.00
34500;BME280;20745;50.882;6.962;2023-03-03T07:51:17;101830.84;;;3.10;100.00
34500;BME280;20745;50.882;6.962;2023-03-03T07:53:48;101834.59;;;3.08;100.00
34500;BME280;20745;50.882;6.962;2023-03-03T07:56:29;101840.16;;;3.05;100.00
34500;BME280;20745;50.882;6.962;2023-03-03T07:58:56;101840.91;;;3.19;100.00
34500;BME280;20745;50.882;6.962;2023-03-03T08:01:38;101837.34;;;3.31;100.00
34500;BME280;20745;50.882;6.962;2023-03-03T08:04:16;101846.53;;;3.40;100.00
34500;BME280;20745;50.882;6.962;2023-03-03T08:06:51;101842.47;;;3.47;100.00
34500;BME280;20745;50.882;6.962;2023-03-03T08:11:50;101851.19;;;3.61;100.00
34500;BME280;20745;50.882;6.962;2023-03-03T08:14:37;101852.72;;;3.53;100.00
34500;BME280;20745;50.882;6.962;2023-03-03T08:17:19;101858.25;;;3.50;100.00
34500;BME280;20745;50.882;6.962;2023-03-03T08:19:48;101855.28;;;3.42;100.00
34500;BME280;20745;50.882;6.962;2023-03-03T08:22:17;101846.97;;;3.46;100.00
34500;BME280;20745;50.882;6.962;2023-03-03T08:24:44;101850.59;;;3.45;100.00
34500;BME280;20745;50.882;6.962;2023-03-03T08:27:11;101860.72;;;3.53;100.00
34500;BME280;20745;50.882;6.962;2023-03-03T08:29:37;101841.97;;;3.29;100.00
34500;BME280;20745;50.882;6.962;2023-03-03T08:32:04;101853.59;;;3.41;100.00
34500;BME280;20745;50.882;6.962;2023-03-03T08:34:31;101860.19;;;3.60;100.00
34500;BME280;20745;50.882;6.962;2023-03-03T08:36:57;101861.00;;;3.73;100.00
34500;BME280;20745;50.882;6.962;2023-03-03T08:39:24;101866.72;;;3.56;100.00
34500;BME280;20745;50.882;6.962;2023-03-03T08:41:50;101873.44;;;3.62;100.00
34500;BME280;20745;50.882;6.962;2023-03-03T08:44:17;101870.84;;;3.73;100.00
34500;BME280;20745;50.882;6.962;2023-03-03T08:46:45;101871.50;;;3.76;100.00
34500;BME280;20745;50.882;6.962;2023-03-03T08:49:12;101872.78;;;3.71;100.00
34500;BME280;20745;50.882;6.962;2023-03-03T08:51:38;101885.06;;;3.73;100.00
34500;BME280;20745;50.882;6.962;2023-03-03T08:54:05;101874.88;;;3.91;100.00
34500;BME280;20745;50.882;6.962;2023-03-03T08:56:32;101881.75;;;3.82;100.00
34500;BME280;20745;50.882;6.962;2023-03-03T08:58:59;101869.22;;;3.83;100.00
34500;BME280;20745;50.882;6.962;2023-03-03T09:01:32;101872.81;;;3.58;100.00
34500;BME280;20745;50.882;6.962;2023-03-03T09:03:59;101880.25;;;3.66;100.00
34500;BME280;20745;50.882;6.962;2023-03-03T09:06:26;101883.25;;;3.74;100.00
34500;BME280;20745;50.882;6.962;2023-03-03T09:08:53;101876.06;;;3.74;100.00
34500;BME280;20745;50.882;6.962;2023-03-03T09:11:25;101894.56;;;3.90;100.00
34500;BME280;20745;50.882;6.962;2023-03-03T09:14:01;101895.63;;;3.75;100.00
34500;BME280;20745;50.882;6.962;2023-03-03T09:16:32;101896.28;;;3.78;100.00
34500;BME280;20745;50.882;6.962;2023-03-03T09:19:18;101897.38;;;3.63;100.00
34500;BME280;20745;50.882;6.962;2023-03-03T09:21:46;101900.13;;;3.87;100.00
34500;BME280;20745;50.882;6.962;2023-03-03T09:24:28;101903.50;;;3.89;100.00
34500;BME280;20745;50.882;6.962;2023-03-03T09:26:56;101895.94;;;3.95;100.00
34500;BME280;20745;50.882;6.962;2023-03-03T09:29:26;101904.78;;;4.08;100.00
34500;BME280;20745;50.882;6.962;2023-03-03T09:34:24;101888.47;;;4.24;100.00
34500;BME280;20745;50.882;6.962;2023-03-03T09:36:54;101906.56;;;4.44;100.00
34500;BME280;20745;50.882;6.962;2023-03-03T09:39:25;101905.03;;;4.52;100.00
34500;BME280;20745;50.882;6.962;2023-03-03T09:45:58;101911.94;;;4.08;100.00
34500;BME280;20745;50.882;6.962;2023-03-03T09:53:39;101928.03;;;4.19;100.00
34500;BME280;20745;50.882;6.962;2023-03-03T09:56:31;101921.22;;;4.15;100.00
34500;BME280;20745;50.882;6.962;2023-03-03T10:05:04;101929.81;;;4.31;100.00
34500;BME280;20745;50.882;6.962;2023-03-03T10:08:27;101927.97;;;4.44;100.00
34500;BME280;20745;50.882;6.962;2023-03-03T10:11:22;101934.56;;;4.51;100.00
34500;BME280;20745;50.882;6.962;2023-03-03T10:22:23;101924.47;;;4.54;100.00
34500;BME280;20745;50.882;6.962;2023-03-03T10:44:47;101930.84;;;4.88;98.54
34500;BME280;20745;50.882;6.962;2023-03-03T10:50:17;101933.00;;;4.83;97.30
34500;BME280;20745;50.882;6.962;2023-03-03T10:52:49;101932.28;;;4.81;97.27
34500;BME280;20745;50.882;6.962;2023-03-03T10:55:28;101932.94;;;4.95;96.50
34500;BME280;20745;50.882;6.962;2023-03-03T10:58:29;101925.34;;;5.13;96.25
34500;BME280;20745;50.882;6.962;2023-03-03T11:01:28;101917.78;;;5.18;96.58
34500;BME280;20745;50.882;6.962;2023-03-03T11:06:45;101928.22;;;5.56;92.29
34500;BME280;20745;50.882;6.962;2023-03-03T11:09:30;101921.47;;;5.39;93.75
34500;BME280;20745;50.882;6.962;2023-03-03T11:12:26;101934.94;;;4.81;95.72
34500;BME280;20745;50.882;6.962;2023-03-03T11:15:11;101941.16;;;4.81;94.57
34500;BME280;20745;50.882;6.962;2023-03-03T11:26:41;101928.69;;;5.50;92.53
34500;BME280;20745;50.882;6.962;2023-03-03T11:35:16;101930.66;;;5.59;92.85
34500;BME280;20745;50.882;6.962;2023-03-03T11:40:20;101924.72;;;5.88;90.04
34500;BME280;20745;50.882;6.962;2023-03-03T11:42:53;101923.97;;;5.75;89.16
34500;BME280;20745;50.882;6.962;2023-03-03T11:45:44;101925.28;;;5.81;88.55
34500;BME280;20745;50.882;6.962;2023-03-03T11:48:31;101919.59;;;5.74;91.21
34500;BME280;20745;50.882;6.962;2023-03-03T11:51:06;101921.53;;;6.05;92.26
34500;BME280;20745;50.882;6.962;2023-03-03T11:56:18;101908.69;;;6.31;92.21
34500;BME280;20745;50.882;6.962;2023-03-03T12:01:41;101898.97;;;6.61;89.75
34500;BME280;20745;50.882;6.962;2023-03-03T12:04:19;101863.94;;;6.31;87.93
34500;BME280;20745;50.882;6.962;2023-03-03T12:12:23;101880.38;;;6.80;85.75
34500;BME280;20745;50.882;6.962;2023-03-03T12:27:10;101876.78;;;6.59;90.50
34500;BME280;20745;50.882;6.962;2023-03-03T12:35:27;101879.50;;;6.80;88.69
34500;BME280;20745;50.882;6.962;2023-03-03T12:41:22;101880.13;;;6.52;85.49
34500;BME280;20745;50.882;6.962;2023-03-03T12:44:23;101866.38;;;6.34;86.04
34500;BME280;20745;50.882;6.962;2023-03-03T12:56:04;101863.59;;;7.08;85.55
34500;BME280;20745;50.882;6.962;2023-03-03T12:58:37;101861.16;;;7.26;85.34
34500;BME280;20745;50.882;6.962;2023-03-03T13:03:52;101870.66;;;7.09;83.57
34500;BME280;20745;50.882;6.962;2023-03-03T13:06:28;101869.16;;;6.96;84.43
34500;BME280;20745;50.882;6.962;2023-03-03T13:11:45;101862.69;;;6.98;87.48
34500;BME280;20745;50.882;6.962;2023-03-03T13:14:54;101866.66;;;7.04;87.22
34500;BME280;20745;50.882;6.962;2023-03-03T13:17:22;101863.00;;;6.84;86.42
34500;BME280;20745;50.882;6.962;2023-03-03T13:19:56;101863.91;;;6.74;85.06
34500;BME280;20745;50.882;6.962;2023-03-03T13:22:49;101865.47;;;6.56;84.84
34500;BME280;20745;50.882;6.962;2023-03-03T13:30:47;101860.31;;;6.21;89.58
34500;BME280;20745;50.882;6.962;2023-03-03T13:33:29;101865.06;;;6.18;89.28
34500;BME280;20745;50.882;6.962;2023-03-03T13:38:34;101839.28;;;6.06;89.30
34500;BME280;20745;50.882;6.962;2023-03-03T13:41:06;101868.13;;;6.24;87.20
34500;BME280;20745;50.882;6.962;2023-03-03T13:43:43;101865.03;;;6.40;87.74
34500;BME280;20745;50.882;6.962;2023-03-03T13:49:07;101858.22;;;6.67;87.56
34500;BME280;20745;50.882;6.962;2023-03-03T13:51:45;101857.09;;;6.38;85.05
34500;BME280;20745;50.882;6.962;2023-03-03T14:00:06;101846.88;;;6.32;88.54
34500;BME280;20745;50.882;6.962;2023-03-03T14:10:46;101855.69;;;6.12;87.03
34500;BME280;20745;50.882;6.962;2023-03-03T14:13:36;101855.56;;;6.25;86.80
34500;BME280;20745;50.882;6.962;2023-03-03T14:16:14;101858.25;;;6.25;90.12
34500;BME280;20745;50.882;6.962;2023-03-03T14:18:54;101860.56;;;6.18;87.55
34500;BME280;20745;50.882;6.962;2023-03-03T14:21:39;101855.00;;;5.99;87.73
34500;BME280;20745;50.882;6.962;2023-03-03T14:24:20;101851.34;;;6.00;90.26
34500;BME280;20745;50.882;6.962;2023-03-03T14:26:48;101841.34;;;6.13;89.97
34500;BME280;20745;50.882;6.962;2023-03-03T14:29:30;101840.63;;;6.00;88.93
34500;BME280;20745;50.882;6.962;2023-03-03T14:32:00;101831.84;;;5.98;88.10
34500;BME280;20745;50.882;6.962;2023-03-03T14:34:39;101835.34;;;6.10;88.60
34500;BME280;20745;50.882;6.962;2023-03-03T14:37:28;101838.59;;;6.24;89.04
34500;BME280;20745;50.882;6.962;2023-03-03T14:40:21;101837.25;;;6.30;89.52
34500;BME280;20745;50.882;6.962;2023-03-03T14:48:14;101829.03;;;6.42;88.74
34500;BME280;20745;50.882;6.962;2023-03-03T14:50:49;101816.72;;;6.40;88.88
34500;BME280;20745;50.882;6.962;2023-03-03T14:53:20;101826.09;;;6.45;87.26
34500;BME280;20745;50.882;6.962;2023-03-03T14:55:51;101820.47;;;6.48;88.71
34500;BME280;20745;50.882;6.962;2023-03-03T14:58:41;101813.03;;;6.41;90.33
34500;BME280;20745;50.882;6.962;2023-03-03T15:01:16;101823.16;;;6.48;87.97
34500;BME280;20745;50.882;6.962;2023-03-03T15:03:49;101821.72;;;6.44;89.31
34500;BME280;20745;50.882;6.962;2023-03-03T15:06:44;101808.22;;;6.35;90.04
34500;BME280;20745;50.882;6.962;2023-03-03T15:09:37;101820.03;;;6.32;88.67
34500;BME280;20745;50.882;6.962;2023-03-03T15:20:54;101799.22;;;6.25;89.03
34500;BME280;20745;50.882;6.962;2023-03-03T15:26:01;101806.41;;;6.24;90.54
34500;BME280;20745;50.882;6.962;2023-03-03T15:28:56;101802.75;;;6.25;91.46
34500;BME280;20745;50.882;6.962;2023-03-03T15:34:23;101805.81;;;6.21;93.86
34500;BME280;20745;50.882;6.962;2023-03-03T15:39:26;101804.53;;;6.04;90.48
34500;BME280;20745;50.882;6.962;2023-03-03T15:42:12;101804.78;;;6.01;90.08
34500;BME280;20745;50.882;6.962;2023-03-03T15:44:55;101808.09;;;5.94;89.22
34500;BME280;20745;50.882;6.962;2023-03-03T15:47:52;101801.16;;;5.91;90.14
34500;BME280;20745;50.882;6.962;2023-03-03T15:50:58;101800.81;;;5.85;89.97
34500;BME280;20745;50.882;6.962;2023-03-03T16:04:47;101795.28;;;5.86;91.61
34500;BME280;20745;50.882;6.962;2023-03-03T16:07:28;101794.47;;;5.86;92.31
34500;BME280;20745;50.882;6.962;2023-03-03T16:15:08;101794.06;;;5.79;93.00
34500;BME280;20745;50.882;6.962;2023-03-03T16:20:39;101804.19;;;5.76;93.50
34500;BME280;20745;50.882;6.962;2023-03-03T16:28:51;101803.94;;;5.68;93.39
34500;BME280;20745;50.882;6.962;2023-03-03T16:31:33;101808.47;;;5.67;94.45
34500;BME280;20745;50.882;6.962;2023-03-03T16:40:08;101813.81;;;5.56;95.05
34500;BME280;20745;50.882;6.962;2023-03-03T16:42:36;101817.59;;;5.54;95.49
34500;BME280;20745;50.882;6.962;2023-03-03T17:06:48;101839.19;;;5.30;98.69
34500;BME280;20745;50.882;6.962;2023-03-03T17:09:36;101834.03;;;5.16;98.74
34500;BME280;20745;50.882;6.962;2023-03-03T17:29:01;101850.38;;;5.24;100.00
34500;BME280;20745;50.882;6.962;2023-03-03T17:31:50;101857.13;;;5.06;100.00